sensor_id;sensor_type;location;lat;lon;timestamp;pressure;altitude;pressure_sealevel;temperature;humidity
68077;BME280;54866;53.458;14.540;2023-05-01T00:11:07;101347.13;;;5.19;77.77
68077;BME280;54866;53.458;14.540;2023-05-01T00:13:38;101345.10;;;5.18;77.52
68077;BME280;54866;53.458;14.540;2023-05-01T00:16:10;101344.02;;;5.18;77.62
68077;BME280;54866;53.458;14.540;2023-05-01T00:18:40;101343.45;;;5.19;77.65
68077;BME280;54866;53.458;14.540;2023-05-01T00:21:09;101340.46;;;5.20;77.29
68077;BME280;54866;53.458;14.540;2023-05-01T00:23:39;101339.96;;;5.19;77.38
68077;BME280;54866;53.458;14.540;2023-05-01T00:26:09;101329.86;;;5.14;77.69
68077;BME280;54866;53.458;14.540;2023-05-01T00:28:38;101328.70;;;5.13;77.60
68077;BME280;54866;53.458;14.540;2023-05-01T00:31:08;101335.61;;;5.11;77.65
68077;BME280;54866;53.458;14.540;2023-05-01T00:33:37;101335.65;;;5.10;77.91
68077;BME280;54866;53.458;14.540;2023-05-01T00:36:07;101332.19;;;5.10;77.87
68077;BME280;54866;53.458;14.540;2023-05-01T00:38:38;101330.16;;;5.08;78.06
68077;BME280;54866;53.458;14.540;2023-05-01T00:41:08;101326.86;;;5.08;77.92
68077;BME280;54866;53.458;14.540;2023-05-01T00:43:37;101323.58;;;5.07;78.09
68077;BME280;54866;53.458;14.540;2023-05-01T00:46:08;101327.48;;;5.06;77.86
68077;BME280;54866;53.458;14.540;2023-05-01T00:48:38;101326.48;;;5.05;77.89
68077;BME280;54866;53.458;14.540;2023-05-01T00:51:08;101323.91;;;5.04;77.90
68077;BME280;54866;53.458;14.540;2023-05-01T00:53:37;101318.30;;;5.04;77.77
68077;BME280;54866;53.458;14.540;2023-05-01T00:56:08;101312.34;;;5.05;77.69
68077;BME280;54866;53.458;14.540;2023-05-01T00:58:39;101303.97;;;5.04;77.61
68077;BME280;54866;53.458;14.540;2023-05-01T01:01:09;101305.71;;;5.04;77.55
68077;BME280;54866;53.458;14.540;2023-05-01T01:03:38;101302.02;;;5.05;77.53
68077;BME280;54866;53.458;14.540;2023-05-01T01:06:14;101293.98;;;5.01;77.67
68077;BME280;54866;53.458;14.540;2023-05-01T01:08:52;101298.80;;;5.02;77.50
68077;BME280;54866;53.458;14.540;2023-05-01T01:11:29;101297.09;;;5.02;77.31
68077;BME280;54866;53.458;14.540;2023-05-01T01:14:05;101293.83;;;5.00;77.31
68077;BME280;54866;53.458;14.540;2023-05-01T01:16:40;101298.80;;;4.99;77.16
68077;BME280;54866;53.458;14.540;2023-05-01T01:19:35;101299.73;;;4.97;77.35
68077;BME280;54866;53.458;14.540;2023-05-01T01:22:21;101299.31;;;4.95;77.35
68077;BME280;54866;53.458;14.540;2023-05-01T01:25:17;101292.95;;;4.93;77.11
68077;BME280;54866;53.458;14.540;2023-05-01T01:31:11;101295.77;;;4.93;77.15
68077;BME280;54866;53.458;14.540;2023-05-01T01:33:59;101295.45;;;4.92;77.09
68077;BME280;54866;53.458;14.540;2023-05-01T01:36:40;101290.59;;;4.92;76.76
68077;BME280;54866;53.458;14.540;2023-05-01T01:39:22;101289.02;;;4.91;76.93
68077;BME280;54866;53.458;14.540;2023-05-01T01:41:54;101287.10;;;4.91;76.85
68077;BME280;54866;53.458;14.540;2023-05-01T01:44:41;101286.89;;;4.92;76.83
68077;BME280;54866;53.458;14.540;2023-05-01T01:47:13;101281.50;;;4.92;76.57
68077;BME280;54866;53.458;14.540;2023-05-01T01:49:47;101284.08;;;4.93;76.54
68077;BME280;54866;53.458;14.540;2023-05-01T01:52:19;101283.88;;;4.93;76.30
68077;BME280;54866;53.458;14.540;2023-05-01T01:54:53;101283.83;;;4.94;76.08
68077;BME280;54866;53.458;14.540;2023-05-01T01:57:26;101282.45;;;4.94;75.91
68077;BME280;54866;53.458;14.540;2023-05-01T01:59:58;101279.02;;;4.96;75.70
68077;BME280;54866;53.458;14.540;2023-05-01T02:02:28;101284.05;;;4.97;75.82
68077;BME280;54866;53.458;14.540;2023-05-01T02:04:59;101278.32;;;4.96;75.57
68077;BME280;54866;53.458;14.540;2023-05-01T02:07:29;101280.20;;;4.97;75.55
68077;BME280;54866;53.458;14.540;2023-05-01T02:10:01;101276.08;;;4.95;75.44
68077;BME280;54866;53.458;14.540;2023-05-01T02:12:32;101273.32;;;4.95;75.29
68077;BME280;54866;53.458;14.540;2023-05-01T02:15:03;101271.73;;;4.95;75.27
68077;BME280;54866;53.458;14.540;2023-05-01T02:17:35;101270.79;;;4.97;75.19
68077;BME280;54866;53.458;14.540;2023-05-01T02:20:08;101265.58;;;4.96;75.31
68077;BME280;54866;53.458;14.540;2023-05-01T02:22:40;101267.23;;;4.94;75.41
68077;BME280;54866;53.458;14.540;2023-05-01T02:25:12;101265.06;;;4.92;75.39
68077;BME280;54866;53.458;14.540;2023-05-01T02:27:45;101263.67;;;4.88;75.66
68077;BME280;54866;53.458;14.540;2023-05-01T02:30:14;101254.75;;;4.84;75.72
68077;BME280;54866;53.458;14.540;2023-05-01T02:32:44;101253.02;;;4.84;75.89
68077;BME280;54866;53.458;14.540;2023-05-01T02:35:13;101250.93;;;4.84;75.69
68077;BME280;54866;53.458;14.540;2023-05-01T02:37:44;101250.66;;;4.82;76.06
68077;BME280;54866;53.458;14.540;2023-05-01T02:40:15;101250.45;;;4.83;75.73
68077;BME280;54866;53.458;14.540;2023-05-01T02:42:45;101248.50;;;4.83;75.58
68077;BME280;54866;53.458;14.540;2023-05-01T02:45:19;101242.20;;;4.84;75.26
68077;BME280;54866;53.458;14.540;2023-05-01T02:47:51;101242.46;;;4.86;75.22
68077;BME280;54866;53.458;14.540;2023-05-01T02:50:23;101240.90;;;4.86;74.82
68077;BME280;54866;53.458;14.540;2023-05-01T02:52:55;101238.20;;;4.88;74.90
68077;BME280;54866;53.458;14.540;2023-05-01T02:55:25;101238.77;;;4.87;74.99
68077;BME280;54866;53.458;14.540;2023-05-01T02:57:58;101236.52;;;4.87;74.75
68077;BME280;54866;53.458;14.540;2023-05-01T03:00:28;101235.79;;;4.87;74.64
68077;BME280;54866;53.458;14.540;2023-05-01T03:02:57;101230.89;;;4.87;74.53
68077;BME280;54866;53.458;14.540;2023-05-01T03:05:27;101235.04;;;4.89;74.53
68077;BME280;54866;53.458;14.540;2023-05-01T03:07:56;101234.89;;;4.88;74.50
68077;BME280;54866;53.458;14.540;2023-05-01T03:10:26;101233.17;;;4.87;74.58
68077;BME280;54866;53.458;14.540;2023-05-01T03:12:55;101233.59;;;4.85;74.59
68077;BME280;54866;53.458;14.540;2023-05-01T03:15:25;101231.95;;;4.83;74.58
68077;BME280;54866;53.458;14.540;2023-05-01T03:17:54;101228.56;;;4.77;74.91
68077;BME280;54866;53.458;14.540;2023-05-01T03:20:24;101225.38;;;4.74;75.02
68077;BME280;54866;53.458;14.540;2023-05-01T03:22:54;101221.46;;;4.72;74.74
68077;BME280;54866;53.458;14.540;2023-05-01T03:25:23;101221.23;;;4.65;74.99
68077;BME280;54866;53.458;14.540;2023-05-01T03:27:53;101216.20;;;4.57;75.20
68077;BME280;54866;53.458;14.540;2023-05-01T03:30:22;101222.98;;;4.49;75.29
68077;BME280;54866;53.458;14.540;2023-05-01T03:32:52;101226.01;;;4.37;75.70
68077;BME280;54866;53.458;14.540;2023-05-01T03:35:22;101221.84;;;4.28;76.41
68077;BME280;54866;53.458;14.540;2023-05-01T03:37:51;101219.99;;;4.22;76.64
68077;BME280;54866;53.458;14.540;2023-05-01T03:40:21;101218.98;;;4.18;77.05
68077;BME280;54866;53.458;14.540;2023-05-01T03:42:50;101221.87;;;4.15;77.04
68077;BME280;54866;53.458;14.540;2023-05-01T03:45:20;101224.28;;;4.12;77.36
68077;BME280;54866;53.458;14.540;2023-05-01T03:47:50;101218.61;;;4.10;77.74
68077;BME280;54866;53.458;14.540;2023-05-01T03:50:19;101218.48;;;4.09;77.70
68077;BME280;54866;53.458;14.540;2023-05-01T03:52:49;101223.36;;;4.10;77.64
68077;BME280;54866;53.458;14.540;2023-05-01T03:55:18;101222.98;;;4.10;77.64
68077;BME280;54866;53.458;14.540;2023-05-01T03:57:48;101223.45;;;4.11;77.77
68077;BME280;54866;53.458;14.540;2023-05-01T04:00:20;101221.66;;;4.12;77.81
68077;BME280;54866;53.458;14.540;2023-05-01T04:02:49;101219.30;;;4.14;77.39
68077;BME280;54866;53.458;14.540;2023-05-01T04:05:19;101217.11;;;4.16;77.48
68077;BME280;54866;53.458;14.540;2023-05-01T04:07:50;101217.94;;;4.18;77.57
68077;BME280;54866;53.458;14.540;2023-05-01T04:10:19;101220.78;;;4.21;77.46
68077;BME280;54866;53.458;14.540;2023-05-01T04:12:49;101219.11;;;4.23;77.65
68077;BME280;54866;53.458;14.540;2023-05-01T04:15:18;101222.30;;;4.29;77.55
68077;BME280;54866;53.458;14.540;2023-05-01T04:17:49;101219.23;;;4.36;77.12
68077;BME280;54866;53.458;14.540;2023-05-01T04:20:19;101212.31;;;4.42;77.10
68077;BME280;54866;53.458;14.540;2023-05-01T04:22:49;101215.45;;;4.50;76.60
68077;BME280;54866;53.458;14.540;2023-05-01T04:25:19;101210.23;;;4.58;76.37
68077;BME280;54866;53.458;14.540;2023-05-01T04:27:48;101213.45;;;4.64;76.52
68077;BME280;54866;53.458;14.540;2023-05-01T04:30:18;101214.54;;;4.71;76.29
68077;BME280;54866;53.458;14.540;2023-05-01T04:32:48;101215.08;;;4.78;76.22
68077;BME280;54866;53.458;14.540;2023-05-01T04:35:17;101211.59;;;4.89;76.04
68077;BME280;54866;53.458;14.540;2023-05-01T04:37:47;101209.34;;;5.00;76.03
68077;BME280;54866;53.458;14.540;2023-05-01T04:40:16;101206.59;;;5.10;75.63
68077;BME280;54866;53.458;14.540;2023-05-01T04:42:47;101208.98;;;5.23;75.55
68077;BME280;54866;53.458;14.540;2023-05-01T04:45:16;101210.19;;;5.33;75.21
68077;BME280;54866;53.458;14.540;2023-05-01T04:47:46;101203.98;;;5.46;75.13
68077;BME280;54866;53.458;14.540;2023-05-01T04:50:15;101208.48;;;5.54;74.57
68077;BME280;54866;53.458;14.540;2023-05-01T04:52:45;101208.67;;;5.61;74.43
68077;BME280;54866;53.458;14.540;2023-05-01T04:55:15;101205.81;;;5.73;74.27
68077;BME280;54866;53.458;14.540;2023-05-01T04:57:45;101203.73;;;5.87;74.14
68077;BME280;54866;53.458;14.540;2023-05-01T05:00:16;101198.01;;;6.00;73.77
68077;BME280;54866;53.458;14.540;2023-05-01T05:02:46;101196.77;;;6.14;73.62
68077;BME280;54866;53.458;14.540;2023-05-01T05:05:16;101193.81;;;6.30;73.05
68077;BME280;54866;53.458;14.540;2023-05-01T05:07:46;101195.86;;;6.45;72.26
68077;BME280;54866;53.458;14.540;2023-05-01T05:10:15;101193.25;;;6.57;71.94
68077;BME280;54866;53.458;14.540;2023-05-01T05:12:45;101191.05;;;6.72;71.43
68077;BME280;54866;53.458;14.540;2023-05-01T05:15:14;101195.04;;;6.85;70.96
68077;BME280;54866;53.458;14.540;2023-05-01T05:17:44;101192.23;;;6.95;70.45
68077;BME280;54866;53.458;14.540;2023-05-01T05:20:14;101191.35;;;7.05;69.89
68077;BME280;54866;53.458;14.540;2023-05-01T05:22:43;101194.50;;;7.14;68.35
68077;BME280;54866;53.458;14.540;2023-05-01T05:25:13;101188.08;;;7.71;67.99
68077;BME280;54866;53.458;14.540;2023-05-01T05:27:43;101177.16;;;9.80;62.77
68077;BME280;54866;53.458;14.540;2023-05-01T05:30:13;101169.70;;;12.09;56.66
68077;BME280;54866;53.458;14.540;2023-05-01T05:32:43;101165.41;;;13.92;50.31
68077;BME280;54866;53.458;14.540;2023-05-01T05:35:14;101164.64;;;15.26;47.16
68077;BME280;54866;53.458;14.540;2023-05-01T05:37:44;101158.63;;;16.57;44.54
68077;BME280;54866;53.458;14.540;2023-05-01T05:40:14;101158.08;;;17.77;42.05
68077;BME280;54866;53.458;14.540;2023-05-01T05:42:44;101152.11;;;18.72;38.49
68077;BME280;54866;53.458;14.540;2023-05-01T05:45:13;101154.20;;;19.34;35.93
68077;BME280;54866;53.458;14.540;2023-05-01T05:47:43;101149.65;;;19.85;34.47
68077;BME280;54866;53.458;14.540;2023-05-01T05:50:13;101141.49;;;20.30;34.20
68077;BME280;54866;53.458;14.540;2023-05-01T05:52:43;101141.34;;;20.59;31.48
68077;BME280;54866;53.458;14.540;2023-05-01T05:55:12;101133.52;;;20.79;31.78
68077;BME280;54866;53.458;14.540;2023-05-01T05:57:42;101132.15;;;21.29;30.70
68077;BME280;54866;53.458;14.540;2023-05-01T06:00:14;101132.06;;;21.44;29.90
68077;BME280;54866;53.458;14.540;2023-05-01T06:02:44;101131.20;;;21.71;29.40
68077;BME280;54866;53.458;14.540;2023-05-01T06:05:14;101127.27;;;22.10;28.47
68077;BME280;54866;53.458;14.540;2023-05-01T06:07:43;101128.34;;;22.06;28.36
68077;BME280;54866;53.458;14.540;2023-05-01T06:10:13;101128.02;;;22.08;28.46
68077;BME280;54866;53.458;14.540;2023-05-01T06:12:43;101123.70;;;22.36;27.54
68077;BME280;54866;53.458;14.540;2023-05-01T06:15:12;101125.05;;;22.40;26.31
68077;BME280;54866;53.458;14.540;2023-05-01T06:17:44;101119.87;;;22.24;26.74
68077;BME280;54866;53.458;14.540;2023-05-01T06:20:13;101119.40;;;22.02;26.35
68077;BME280;54866;53.458;14.540;2023-05-01T06:22:43;101124.54;;;22.47;26.97
68077;BME280;54866;53.458;14.540;2023-05-01T06:25:14;101115.97;;;22.60;26.13
68077;BME280;54866;53.458;14.540;2023-05-01T06:27:44;101113.46;;;22.87;26.23
68077;BME280;54866;53.458;14.540;2023-05-01T06:30:14;101112.63;;;23.01;25.69
68077;BME280;54866;53.458;14.540;2023-05-01T06:32:43;101113.88;;;23.01;25.09
68077;BME280;54866;53.458;14.540;2023-05-01T06:35:14;101111.80;;;22.85;24.81
68077;BME280;54866;53.458;14.540;2023-05-01T06:37:43;101109.09;;;22.98;25.79
68077;BME280;54866;53.458;14.540;2023-05-01T06:40:13;101111.98;;;23.90;25.23
68077;BME280;54866;53.458;14.540;2023-05-01T06:42:43;101104.70;;;24.50;24.12
68077;BME280;54866;53.458;14.540;2023-05-01T06:45:12;101108.91;;;24.87;23.32
68077;BME280;54866;53.458;14.540;2023-05-01T06:47:42;101104.13;;;24.83;23.25
68077;BME280;54866;53.458;14.540;2023-05-01T06:50:12;101100.42;;;24.75;23.27
68077;BME280;54866;53.458;14.540;2023-05-01T06:52:42;101099.61;;;24.55;22.86
68077;BME280;54866;53.458;14.540;2023-05-01T06:55:12;101098.48;;;24.74;23.06
68077;BME280;54866;53.458;14.540;2023-05-01T06:57:41;101092.69;;;24.70;22.62
68077;BME280;54866;53.458;14.540;2023-05-01T07:00:14;101097.14;;;23.92;23.19
68077;BME280;54866;53.458;14.540;2023-05-01T07:02:44;101104.02;;;22.47;24.39
68077;BME280;54866;53.458;14.540;2023-05-01T07:05:14;101096.66;;;20.91;25.96
68077;BME280;54866;53.458;14.540;2023-05-01T07:07:43;101104.86;;;19.66;26.55
68077;BME280;54866;53.458;14.540;2023-05-01T07:10:13;101100.75;;;18.02;28.16
68077;BME280;54866;53.458;14.540;2023-05-01T07:12:42;101104.52;;;16.68;30.11
68077;BME280;54866;53.458;14.540;2023-05-01T07:15:12;101101.30;;;15.76;31.86
68077;BME280;54866;53.458;14.540;2023-05-01T07:17:43;101100.45;;;15.10;33.15
68077;BME280;54866;53.458;14.540;2023-05-01T07:20:14;101101.14;;;14.71;34.48
68077;BME280;54866;53.458;14.540;2023-05-01T07:22:44;101099.84;;;14.43;34.78
68077;BME280;54866;53.458;14.540;2023-05-01T07:25:14;101098.66;;;14.30;35.61
68077;BME280;54866;53.458;14.540;2023-05-01T07:27:43;101096.19;;;14.12;36.38
68077;BME280;54866;53.458;14.540;2023-05-01T07:30:13;101090.95;;;14.13;36.91
68077;BME280;54866;53.458;14.540;2023-05-01T07:32:42;101089.02;;;14.07;37.21
68077;BME280;54866;53.458;14.540;2023-05-01T07:35:12;101092.63;;;14.12;37.17
68077;BME280;54866;53.458;14.540;2023-05-01T07:37:41;101091.27;;;14.13;37.47
68077;BME280;54866;53.458;14.540;2023-05-01T07:40:12;101081.55;;;14.11;37.55
68077;BME280;54866;53.458;14.540;2023-05-01T07:42:41;101083.81;;;13.97;38.30
68077;BME280;54866;53.458;14.540;2023-05-01T07:45:12;101082.02;;;14.00;38.32
68077;BME280;54866;53.458;14.540;2023-05-01T07:47:41;101084.05;;;13.92;38.58
68077;BME280;54866;53.458;14.540;2023-05-01T07:50:11;101080.96;;;13.75;38.86
68077;BME280;54866;53.458;14.540;2023-05-01T07:52:41;101079.39;;;13.81;39.17
68077;BME280;54866;53.458;14.540;2023-05-01T07:55:11;101081.45;;;13.79;39.31
68077;BME280;54866;53.458;14.540;2023-05-01T07:57:41;101079.77;;;13.89;39.33
68077;BME280;54866;53.458;14.540;2023-05-01T08:00:13;101079.55;;;13.83;38.92
68077;BME280;54866;53.458;14.540;2023-05-01T08:02:42;101079.94;;;13.87;39.74
68077;BME280;54866;53.458;14.540;2023-05-01T08:05:12;101076.58;;;14.07;39.40
68077;BME280;54866;53.458;14.540;2023-05-01T08:07:41;101076.91;;;14.22;39.33
68077;BME280;54866;53.458;14.540;2023-05-01T08:10:11;101070.66;;;14.52;39.00
68077;BME280;54866;53.458;14.540;2023-05-01T08:12:41;101066.35;;;14.93;38.51
68077;BME280;54866;53.458;14.540;2023-05-01T08:15:11;101058.91;;;15.37;37.21
68077;BME280;54866;53.458;14.540;2023-05-01T08:17:40;101063.56;;;15.75;36.96
68077;BME280;54866;53.458;14.540;2023-05-01T08:20:12;101056.98;;;15.65;37.55
68077;BME280;54866;53.458;14.540;2023-05-01T08:22:42;101062.45;;;15.73;37.14
68077;BME280;54866;53.458;14.540;2023-05-01T08:25:11;101051.37;;;15.98;36.82
68077;BME280;54866;53.458;14.540;2023-05-01T08:27:41;101054.20;;;15.91;36.92
68077;BME280;54866;53.458;14.540;2023-05-01T08:30:11;101065.83;;;15.98;36.92
68077;BME280;54866;53.458;14.540;2023-05-01T08:32:41;101061.57;;;16.03;36.69
68077;BME280;54866;53.458;14.540;2023-05-01T08:35:10;101058.22;;;16.01;36.84
68077;BME280;54866;53.458;14.540;2023-05-01T08:37:40;101061.35;;;16.09;36.48
68077;BME280;54866;53.458;14.540;2023-05-01T08:40:11;101060.89;;;16.67;36.23
68077;BME280;54866;53.458;14.540;2023-05-01T08:42:40;101052.58;;;17.40;34.13
68077;BME280;54866;53.458;14.540;2023-05-01T08:45:11;101056.96;;;17.96;33.32
68077;BME280;54866;53.458;14.540;2023-05-01T08:47:40;101048.52;;;18.61;32.27
68077;BME280;54866;53.458;14.540;2023-05-01T08:50:12;101045.27;;;19.26;31.10
68077;BME280;54866;53.458;14.540;2023-05-01T08:52:43;101033.30;;;19.74;29.96
68077;BME280;54866;53.458;14.540;2023-05-01T08:55:14;101027.88;;;20.04;29.72
68077;BME280;54866;53.458;14.540;2023-05-01T08:57:46;101025.84;;;20.79;29.40
68077;BME280;54866;53.458;14.540;2023-05-01T09:00:18;101015.90;;;21.52;27.78
68077;BME280;54866;53.458;14.540;2023-05-01T09:02:50;101010.91;;;21.39;26.55
68077;BME280;54866;53.458;14.540;2023-05-01T09:05:20;101018.70;;;21.59;26.99
68077;BME280;54866;53.458;14.540;2023-05-01T09:07:50;101019.55;;;22.16;26.35
68077;BME280;54866;53.458;14.540;2023-05-01T09:10:19;101015.73;;;22.77;26.00
68077;BME280;54866;53.458;14.540;2023-05-01T09:12:53;101003.29;;;23.10;25.09
68077;BME280;54866;53.458;14.540;2023-05-01T09:15:25;101006.37;;;23.20;24.51
68077;BME280;54866;53.458;14.540;2023-05-01T09:17:56;101005.70;;;23.36;24.10
68077;BME280;54866;53.458;14.540;2023-05-01T09:20:28;101001.20;;;23.58;24.23
68077;BME280;54866;53.458;14.540;2023-05-01T09:22:59;100991.96;;;23.97;23.38
68077;BME280;54866;53.458;14.540;2023-05-01T09:25:29;100986.11;;;23.96;23.32
68077;BME280;54866;53.458;14.540;2023-05-01T09:27:59;100994.95;;;23.79;23.45
68077;BME280;54866;53.458;14.540;2023-05-01T09:30:33;100994.93;;;23.52;23.77
68077;BME280;54866;53.458;14.540;2023-05-01T09:33:11;100991.30;;;23.04;24.04
68077;BME280;54866;53.458;14.540;2023-05-01T09:35:50;100979.16;;;22.61;24.66
68077;BME280;54866;53.458;14.540;2023-05-01T09:38:22;100979.04;;;22.57;24.90
68077;BME280;54866;53.458;14.540;2023-05-01T09:40:53;100969.38;;;22.47;24.44
68077;BME280;54866;53.458;14.540;2023-05-01T09:43:28;100968.73;;;22.07;25.05
68077;BME280;54866;53.458;14.540;2023-05-01T09:46:02;100969.46;;;22.03;25.48
68077;BME280;54866;53.458;14.540;2023-05-01T09:48:34;100965.84;;;22.26;25.35
68077;BME280;54866;53.458;14.540;2023-05-01T09:51:20;100958.03;;;22.17;24.89
68077;BME280;54866;53.458;14.540;2023-05-01T09:53:50;100968.73;;;21.87;25.21
68077;BME280;54866;53.458;14.540;2023-05-01T09:56:21;100952.56;;;21.93;25.20
68077;BME280;54866;53.458;14.540;2023-05-01T09:58:52;100967.77;;;22.25;24.69
68077;BME280;54866;53.458;14.540;2023-05-01T10:01:38;100959.00;;;22.54;24.15
68077;BME280;54866;53.458;14.540;2023-05-01T10:04:08;100954.59;;;22.57;23.95
68077;BME280;54866;53.458;14.540;2023-05-01T10:06:39;100943.33;;;22.57;24.40
68077;BME280;54866;53.458;14.540;2023-05-01T10:09:09;100941.95;;;22.52;24.50
68077;BME280;54866;53.458;14.540;2023-05-01T10:11:51;100943.27;;;22.48;24.50
68077;BME280;54866;53.458;14.540;2023-05-01T10:14:22;100938.27;;;22.62;24.66
68077;BME280;54866;53.458;14.540;2023-05-01T10:16:54;100938.02;;;22.62;24.01
68077;BME280;54866;53.458;14.540;2023-05-01T10:19:24;100934.98;;;22.68;24.00
68077;BME280;54866;53.458;14.540;2023-05-01T10:21:54;100926.89;;;22.64;24.54
68077;BME280;54866;53.458;14.540;2023-05-01T10:24:24;100925.12;;;22.70;24.15
68077;BME280;54866;53.458;14.540;2023-05-01T10:26:54;100916.89;;;22.72;23.12
68077;BME280;54866;53.458;14.540;2023-05-01T10:29:27;100918.99;;;22.38;23.95
68077;BME280;54866;53.458;14.540;2023-05-01T10:31:58;100907.31;;;22.29;24.16
68077;BME280;54866;53.458;14.540;2023-05-01T10:34:29;100917.01;;;22.50;24.29
68077;BME280;54866;53.458;14.540;2023-05-01T10:37:03;100913.65;;;22.53;24.14
68077;BME280;54866;53.458;14.540;2023-05-01T10:39:35;100907.91;;;22.25;24.36
68077;BME280;54866;53.458;14.540;2023-05-01T10:42:06;100898.67;;;21.69;24.90
68077;BME280;54866;53.458;14.540;2023-05-01T10:44:38;100883.60;;;21.48;25.16
68077;BME280;54866;53.458;14.540;2023-05-01T10:47:44;100885.30;;;21.50;25.45
68077;BME280;54866;53.458;14.540;2023-05-01T10:50:15;100876.80;;;21.63;24.53
68077;BME280;54866;53.458;14.540;2023-05-01T10:53:17;100874.77;;;21.52;24.13
68077;BME280;54866;53.458;14.540;2023-05-01T10:55:48;100864.16;;;21.22;24.86
68077;BME280;54866;53.458;14.540;2023-05-01T11:01:32;100853.05;;;21.13;25.20
68077;BME280;54866;53.458;14.540;2023-05-01T11:04:03;100845.55;;;21.12;25.34
68077;BME280;54866;53.458;14.540;2023-05-01T11:06:35;100849.09;;;21.34;25.61
68077;BME280;54866;53.458;14.540;2023-05-01T11:09:38;100847.17;;;21.43;24.69
68077;BME280;54866;53.458;14.540;2023-05-01T11:12:08;100836.90;;;21.30;24.78
68077;BME280;54866;53.458;14.540;2023-05-01T11:15:04;100841.27;;;21.16;24.80
68077;BME280;54866;53.458;14.540;2023-05-01T11:17:48;100835.61;;;20.86;25.52
68077;BME280;54866;53.458;14.540;2023-05-01T11:20:47;100832.48;;;21.05;25.23
68077;BME280;54866;53.458;14.540;2023-05-01T11:23:21;100834.35;;;21.34;25.04
68077;BME280;54866;53.458;14.540;2023-05-01T11:26:02;100822.80;;;21.59;23.98
68077;BME280;54866;53.458;14.540;2023-05-01T11:28:34;100814.15;;;21.49;23.57
68077;BME280;54866;53.458;14.540;2023-05-01T11:31:04;100817.51;;;21.39;23.88
68077;BME280;54866;53.458;14.540;2023-05-01T11:33:34;100822.59;;;21.22;23.79
68077;BME280;54866;53.458;14.540;2023-05-01T11:36:04;100806.52;;;21.15;24.54
68077;BME280;54866;53.458;14.540;2023-05-01T11:38:34;100806.71;;;21.24;24.86
68077;BME280;54866;53.458;14.540;2023-05-01T11:41:04;100805.57;;;21.18;25.08
68077;BME280;54866;53.458;14.540;2023-05-01T11:43:33;100816.52;;;21.25;24.12
68077;BME280;54866;53.458;14.540;2023-05-01T11:46:15;100812.55;;;21.40;24.09
68077;BME280;54866;53.458;14.540;2023-05-01T11:48:51;100789.09;;;21.38;24.65
68077;BME280;54866;53.458;14.540;2023-05-01T11:51:21;100785.98;;;21.42;24.75
68077;BME280;54866;53.458;14.540;2023-05-01T11:54:02;100779.08;;;21.47;24.99
68077;BME280;54866;53.458;14.540;2023-05-01T11:56:33;100775.05;;;21.37;25.13
68077;BME280;54866;53.458;14.540;2023-05-01T11:59:11;100778.50;;;21.32;23.90
68077;BME280;54866;53.458;14.540;2023-05-01T12:01:43;100785.81;;;21.27;23.69
68077;BME280;54866;53.458;14.540;2023-05-01T12:04:22;100778.38;;;20.89;24.12
68077;BME280;54866;53.458;14.540;2023-05-01T12:06:52;100764.52;;;20.67;25.03
68077;BME280;54866;53.458;14.540;2023-05-01T12:09:23;100752.23;;;20.85;25.19
68077;BME280;54866;53.458;14.540;2023-05-01T12:11:53;100764.11;;;20.94;25.23
68077;BME280;54866;53.458;14.540;2023-05-01T12:14:23;100756.62;;;20.83;24.79
68077;BME280;54866;53.458;14.540;2023-05-01T12:16:53;100745.84;;;20.42;25.48
68077;BME280;54866;53.458;14.540;2023-05-01T12:19:24;100744.83;;;20.12;25.71
68077;BME280;54866;53.458;14.540;2023-05-01T12:22:06;100744.48;;;20.18;25.46
68077;BME280;54866;53.458;14.540;2023-05-01T12:24:36;100738.00;;;20.09;25.80
68077;BME280;54866;53.458;14.540;2023-05-01T12:27:07;100731.64;;;20.31;25.95
68077;BME280;54866;53.458;14.540;2023-05-01T12:29:43;100729.36;;;20.47;25.75
68077;BME280;54866;53.458;14.540;2023-05-01T12:32:14;100736.07;;;20.78;26.07
68077;BME280;54866;53.458;14.540;2023-05-01T12:34:44;100727.11;;;20.94;26.03
68077;BME280;54866;53.458;14.540;2023-05-01T12:37:14;100722.36;;;21.00;26.08
68077;BME280;54866;53.458;14.540;2023-05-01T12:39:44;100713.16;;;20.97;25.45
68077;BME280;54866;53.458;14.540;2023-05-01T12:42:14;100711.89;;;21.07;25.47
68077;BME280;54866;53.458;14.540;2023-05-01T12:44:45;100709.96;;;21.14;25.04
68077;BME280;54866;53.458;14.540;2023-05-01T12:47:14;100697.38;;;20.87;25.14
68077;BME280;54866;53.458;14.540;2023-05-01T12:49:44;100686.73;;;20.80;25.69
68077;BME280;54866;53.458;14.540;2023-05-01T12:52:14;100688.59;;;20.87;25.72
68077;BME280;54866;53.458;14.540;2023-05-01T12:54:43;100679.07;;;20.80;25.52
68077;BME280;54866;53.458;14.540;2023-05-01T12:57:15;100678.20;;;20.53;25.61
68077;BME280;54866;53.458;14.540;2023-05-01T12:59:45;100696.54;;;20.50;26.00
68077;BME280;54866;53.458;14.540;2023-05-01T13:02:17;100688.17;;;20.52;25.59
68077;BME280;54866;53.458;14.540;2023-05-01T13:04:47;100684.31;;;20.45;25.82
68077;BME280;54866;53.458;14.540;2023-05-01T13:07:18;100675.38;;;20.36;25.85
68077;BME280;54866;53.458;14.540;2023-05-01T13:09:55;100666.20;;;20.32;26.35
68077;BME280;54866;53.458;14.540;2023-05-01T13:12:26;100660.49;;;20.28;26.17
68077;BME280;54866;53.458;14.540;2023-05-01T13:14:56;100648.15;;;20.20;26.26
68077;BME280;54866;53.458;14.540;2023-05-01T13:17:27;100657.11;;;20.14;26.12
68077;BME280;54866;53.458;14.540;2023-05-01T13:19:59;100643.70;;;20.03;26.13
68077;BME280;54866;53.458;14.540;2023-05-01T13:22:31;100648.84;;;20.21;26.32